Time;durP1;ratioP1;P1;durP2;ratioP2;P2;SDS_P1;SDS_P2;PMS_P1;PMS_P2;Temp;Humidity;BMP_temperature;BMP_pressure;BME280_temperature;BME280_humidity;BME280_pressure;Samples;Min_cycle;Max_cycle;Signal;HPM_P1;HPM_P2
2020/12/06 00:00:48;;;;;;;9.45;5.78;;;2.90;85.80;;;;;;2039525;29;20035;-82
2020/12/06 00:01:48;;;;;;;10.55;5.93;;;2.90;85.80;;;;;;2037887;29;20034;-81
2020/12/06 00:02:49;;;;;;;8.98;5.75;;;2.90;85.80;;;;;;2056504;28;20524;-81
2020/12/06 00:03:50;;;;;;;9.32;5.85;;;2.80;85.80;;;;;;2043392;28;20462;-81
2020/12/06 00:04:50;;;;;;;10.70;5.97;;;2.80;85.80;;;;;;2052706;28;20027;-80
2020/12/06 00:05:51;;;;;;;9.65;6.10;;;2.80;86.30;;;;;;2056333;28;20085;-81
2020/12/06 00:06:52;;;;;;;10.15;5.90;;;2.90;85.80;;;;;;2048019;28;20094;-81
2020/12/06 00:07:52;;;;;;;10.18;6.20;;;2.80;85.80;;;;;;2056148;28;20547;-81
2020/12/06 00:08:53;;;;;;;9.60;5.82;;;2.90;85.80;;;;;;2062665;28;20102;-80
2020/12/06 00:09:53;;;;;;;8.77;5.70;;;2.90;85.90;;;;;;2056313;28;20034;-81
2020/12/06 00:10:54;;;;;;;8.55;5.75;;;2.90;85.80;;;;;;2054364;28;20122;-81
2020/12/06 00:11:58;;;;;;;9.13;5.80;;;2.90;85.80;;;;;;2055573;28;20030;-81
2020/12/06 00:12:59;;;;;;;8.88;5.65;;;2.90;85.80;;;;;;2053788;28;20014;-81
2020/12/06 00:14:00;;;;;;;9.18;6.10;;;2.90;85.80;;;;;;2054168;28;20539;-81
2020/12/06 00:15:01;;;;;;;9.13;6.07;;;2.90;85.80;;;;;;2054302;28;20027;-81
2020/12/06 00:16:01;;;;;;;8.20;6.13;;;2.90;85.80;;;;;;2056166;28;20026;-81
2020/12/06 00:17:02;;;;;;;11.70;6.82;;;2.90;85.80;;;;;;2056318;28;20057;-81
2020/12/06 00:18:03;;;;;;;9.90;6.22;;;2.90;85.80;;;;;;2055408;28;20492;-81
2020/12/06 00:19:04;;;;;;;9.38;6.28;;;2.90;85.80;;;;;;2036694;29;20110;-81
2020/12/06 00:20:08;;;;;;;10.70;6.75;;;2.90;85.80;;;;;;2048079;28;20042;-82
2020/12/06 00:21:19;;;;;;;10.55;6.40;;;2.90;85.80;;;;;;2063589;28;20532;-81
2020/12/06 00:22:20;;;;;;;10.73;6.15;;;2.90;85.80;;;;;;2071458;28;20029;-82
2020/12/06 00:23:21;;;;;;;11.13;6.53;;;2.90;85.80;;;;;;2070218;28;20050;-81
2020/12/06 00:24:22;;;;;;;10.23;6.60;;;2.90;85.80;;;;;;2048413;28;20498;-81
2020/12/06 00:25:23;;;;;;;9.38;6.22;;;2.80;85.80;;;;;;2048207;28;20070;-81
2020/12/06 00:26:25;;;;;;;10.38;6.43;;;2.90;85.80;;;;;;2063867;28;20049;-80
2020/12/06 00:27:26;;;;;;;10.40;7.00;;;2.80;85.80;;;;;;2054983;28;20041;-81
2020/12/06 00:28:26;;;;;;;10.18;6.72;;;2.80;85.80;;;;;;2052994;28;20023;-81
2020/12/06 00:29:27;;;;;;;11.70;7.03;;;2.80;85.80;;;;;;2057091;28;20397;-81
2020/12/06 00:30:28;;;;;;;8.95;5.97;;;2.80;85.80;;;;;;2064154;28;20039;-81
2020/12/06 00:31:28;;;;;;;9.63;6.38;;;2.80;85.80;;;;;;2054714;28;20034;-81
2020/12/06 00:32:29;;;;;;;9.95;6.32;;;2.80;85.90;;;;;;2055901;28;20030;-81
2020/12/06 00:33:30;;;;;;;9.23;6.10;;;2.80;85.90;;;;;;2064946;28;20034;-81
2020/12/06 00:34:30;;;;;;;10.18;6.45;;;2.80;85.90;;;;;;2065898;28;20081;-82
2020/12/06 00:35:31;;;;;;;10.18;6.70;;;2.80;86.70;;;;;;2056181;28;20102;-81
2020/12/06 00:36:32;;;;;;;10.63;6.35;;;2.70;86.00;;;;;;2059635;28;20057;-81
2020/12/06 00:37:33;;;;;;;8.60;6.13;;;2.70;86.60;;;;;;2059361;28;20026;-81
2020/12/06 00:38:33;;;;;;;9.40;6.45;;;2.80;86.10;;;;;;2065049;28;20066;-82
2020/12/06 00:39:34;;;;;;;9.65;6.13;;;2.80;86.10;;;;;;2065306;28;20373;-81
2020/12/06 00:40:35;;;;;;;9.23;6.30;;;2.80;86.10;;;;;;2052995;28;20073;-81
2020/12/06 00:41:35;;;;;;;9.30;6.38;;;2.70;86.00;;;;;;2041662;29;20043;-81
2020/12/06 00:42:37;;;;;;;9.60;6.22;;;2.80;86.10;;;;;;2049411;28;20027;-81
2020/12/06 00:43:38;;;;;;;9.55;5.72;;;2.80;86.10;;;;;;2058990;28;20503;-81
2020/12/06 00:44:39;;;;;;;8.00;5.57;;;2.70;86.10;;;;;;2057960;28;20544;-81
2020/12/06 00:45:40;;;;;;;9.70;5.57;;;2.70;86.10;;;;;;2063532;28;20085;-81
2020/12/06 00:46:40;;;;;;;8.95;5.90;;;2.70;86.10;;;;;;2057275;28;20114;-80
2020/12/06 00:47:41;;;;;;;9.00;6.07;;;2.70;86.10;;;;;;2063572;28;20042;-80
2020/12/06 00:48:41;;;;;;;8.30;5.57;;;2.70;86.10;;;;;;2065520;28;20042;-81
2020/12/06 00:49:42;;;;;;;10.18;6.55;;;2.70;86.20;;;;;;2056437;28;20031;-81
2020/12/06 00:50:43;;;;;;;9.10;5.72;;;2.70;86.20;;;;;;2064084;28;20095;-80
2020/12/06 00:51:43;;;;;;;8.35;5.40;;;2.70;86.20;;;;;;2063290;28;20412;-80
2020/12/06 00:52:44;;;;;;;9.10;5.32;;;2.70;86.30;;;;;;2064419;28;20101;-80
2020/12/06 00:53:45;;;;;;;8.50;5.75;;;2.70;86.30;;;;;;2049431;28;20130;-81
2020/12/06 00:54:45;;;;;;;9.98;6.03;;;2.70;86.30;;;;;;2049586;28;20019;-81
2020/12/06 00:55:46;;;;;;;9.07;5.88;;;2.70;86.40;;;;;;2055759;28;20401;-80
2020/12/06 00:56:46;;;;;;;7.30;5.15;;;2.70;86.40;;;;;;2042000;28;20063;-81
2020/12/06 00:57:47;;;;;;;8.25;5.22;;;2.70;86.40;;;;;;2040434;29;20098;-81
2020/12/06 00:58:48;;;;;;;8.50;5.30;;;2.70;86.40;;;;;;2047311;28;20069;-81
2020/12/06 00:59:49;;;;;;;9.43;6.13;;;2.70;86.40;;;;;;2055509;28;20051;-81
2020/12/06 01:00:50;;;;;;;9.20;5.80;;;2.70;86.40;;;;;;2057028;28;20421;-81
2020/12/06 01:01:51;;;;;;;10.23;6.78;;;2.70;86.40;;;;;;2056895;28;20408;-81
2020/12/06 01:02:51;;;;;;;11.43;6.65;;;2.70;86.50;;;;;;2065043;28;20033;-81
2020/12/06 01:03:52;;;;;;;9.23;6.22;;;2.60;86.40;;;;;;2065359;28;20034;-81
2020/12/06 01:04:53;;;;;;;10.02;6.30;;;2.70;86.40;;;;;;2054301;28;20054;-81
2020/12/06 01:05:53;;;;;;;9.15;5.57;;;2.70;86.50;;;;;;2065241;28;20087;-82
2020/12/06 01:06:56;;;;;;;9.70;6.20;;;2.70;86.50;;;;;;2057346;28;20035;-81
2020/12/06 01:07:57;;;;;;;9.70;6.40;;;2.70;86.50;;;;;;2048877;28;20031;-81
2020/12/06 01:08:58;;;;;;;12.43;6.88;;;2.60;86.40;;;;;;2051492;28;20032;-81
2020/12/06 01:09:58;;;;;;;10.95;7.20;;;2.70;86.40;;;;;;2056167;28;20058;-81
2020/12/06 01:10:59;;;;;;;10.13;7.00;;;2.70;86.40;;;;;;2060452;28;20121;-81
2020/12/06 01:11:59;;;;;;;10.80;6.70;;;2.70;86.40;;;;;;2049358;28;20090;-81
2020/12/06 01:13:00;;;;;;;9.82;6.72;;;2.70;86.40;;;;;;2059554;28;20109;-81
2020/12/06 01:14:01;;;;;;;9.20;6.35;;;2.70;86.40;;;;;;2062380;28;20035;-81
2020/12/06 01:15:04;;;;;;;9.93;6.55;;;2.70;86.40;;;;;;2058601;28;20459;-81
2020/12/06 01:16:05;;;;;;;9.38;6.32;;;2.70;86.40;;;;;;2065574;28;20588;-81
2020/12/06 01:17:05;;;;;;;10.10;6.15;;;2.70;86.40;;;;;;2057348;28;20113;-81
2020/12/06 01:18:06;;;;;;;9.52;6.05;;;2.70;86.40;;;;;;2052192;28;20512;-82
2020/12/06 01:19:06;;;;;;;9.27;5.80;;;2.70;86.40;;;;;;2054828;28;20047;-81
2020/12/06 01:20:08;;;;;;;10.30;6.15;;;2.70;86.40;;;;;;2058763;28;20102;-81
2020/12/06 01:21:12;;;;;;;8.82;5.57;;;2.70;86.40;;;;;;2064057;28;20029;-81
2020/12/06 01:22:12;;;;;;;8.82;5.47;;;2.70;86.50;;;;;;2067372;28;20022;-81
2020/12/06 01:23:13;;;;;;;9.98;6.50;;;2.70;86.50;;;;;;2058394;28;20098;-82
2020/12/06 01:24:14;;;;;;;9.40;6.15;;;2.70;86.50;;;;;;2052964;28;20078;-81
2020/12/06 01:25:14;;;;;;;9.57;6.32;;;2.70;86.50;;;;;;2057309;28;20083;-81
2020/12/06 01:26:15;;;;;;;10.18;6.28;;;2.70;86.50;;;;;;2065304;28;20034;-81
2020/12/06 01:27:18;;;;;;;9.68;6.32;;;2.70;86.50;;;;;;2056593;28;20509;-81
2020/12/06 01:28:18;;;;;;;8.95;5.50;;;2.70;86.50;;;;;;2049548;28;20059;-81
2020/12/06 01:29:19;;;;;;;8.20;5.80;;;2.70;86.50;;;;;;2056487;28;20448;-81
2020/12/06 01:30:19;;;;;;;8.75;5.88;;;2.70;86.50;;;;;;2056234;28;20078;-81
2020/12/06 01:31:20;;;;;;;10.30;6.40;;;2.70;86.50;;;;;;2047457;28;20162;-81
2020/12/06 01:32:20;;;;;;;9.40;5.75;;;2.70;86.50;;;;;;2045591;28;20023;-82
2020/12/06 01:33:21;;;;;;;8.10;5.70;;;2.70;86.50;;;;;;2052039;28;20037;-81
2020/12/06 01:34:22;;;;;;;9.65;6.20;;;2.70;86.50;;;;;;2065508;28;20034;-81
2020/12/06 01:35:22;;;;;;;10.25;6.07;;;2.70;86.60;;;;;;2062448;28;20407;-81
2020/12/06 01:36:23;;;;;;;9.10;6.05;;;2.70;86.60;;;;;;2048289;28;20434;-81
2020/12/06 01:37:24;;;;;;;11.82;6.53;;;2.70;86.60;;;;;;2049112;28;20098;-81
2020/12/06 01:38:24;;;;;;;10.40;6.53;;;2.70;86.70;;;;;;2053433;28;20031;-81
2020/12/06 01:39:25;;;;;;;9.75;5.95;;;2.60;86.60;;;;;;2058192;28;20062;-81
2020/12/06 01:40:27;;;;;;;10.35;6.20;;;2.60;86.60;;;;;;2041176;29;20032;-81
2020/12/06 01:41:28;;;;;;;9.73;6.00;;;2.70;86.70;;;;;;2050456;28;20521;-81
2020/12/06 01:42:29;;;;;;;9.50;5.75;;;2.70;86.70;;;;;;2062048;28;20030;-81
2020/12/06 01:43:29;;;;;;;9.30;6.13;;;2.70;86.70;;;;;;2061616;28;20039;-81
2020/12/06 01:44:30;;;;;;;9.45;5.95;;;2.60;86.60;;;;;;2043892;29;20118;-81
2020/12/06 01:45:31;;;;;;;8.70;5.90;;;2.60;86.70;;;;;;2040952;29;20040;-81
2020/12/06 01:46:35;;;;;;;8.65;5.93;;;2.60;86.60;;;;;;2048658;28;20035;-81
2020/12/06 01:47:35;;;;;;;9.35;6.05;;;2.70;86.70;;;;;;2044674;28;20047;-81
2020/12/06 01:48:36;;;;;;;10.07;6.50;;;2.60;86.60;;;;;;2056830;28;20112;-81
2020/12/06 01:49:37;;;;;;;9.20;5.93;;;2.60;86.60;;;;;;2063582;28;20030;-81
2020/12/06 01:50:38;;;;;;;9.32;6.43;;;2.60;86.60;;;;;;2061769;28;20035;-82
2020/12/06 01:51:39;;;;;;;9.52;6.50;;;2.60;86.70;;;;;;2057387;28;20477;-81
2020/12/06 01:52:41;;;;;;;8.25;5.57;;;2.70;86.70;;;;;;2057797;28;20035;-81
2020/12/06 01:53:42;;;;;;;8.98;5.63;;;2.60;86.70;;;;;;2056717;28;20338;-81
2020/12/06 01:54:42;;;;;;;8.32;6.18;;;2.60;87.30;;;;;;2048793;29;20031;-81
2020/12/06 01:55:45;;;;;;;10.20;6.32;;;2.70;86.70;;;;;;2064187;28;20096;-81
2020/12/06 01:56:45;;;;;;;9.73;6.32;;;2.70;86.70;;;;;;2060431;28;20033;-81
2020/12/06 01:57:46;;;;;;;8.63;5.55;;;2.60;86.70;;;;;;2063936;28;20058;-81
2020/12/06 01:58:47;;;;;;;8.95;5.97;;;2.70;86.80;;;;;;2056763;28;20162;-81
2020/12/06 01:59:48;;;;;;;9.27;5.97;;;2.70;86.70;;;;;;2054561;28;20026;-81
2020/12/06 02:00:49;;;;;;;10.38;5.72;;;2.70;86.80;;;;;;2058123;28;20481;-81
2020/12/06 02:01:54;;;;;;;8.88;5.63;;;2.70;86.80;;;;;;2065356;28;20096;-81
2020/12/06 02:02:55;;;;;;;8.93;5.55;;;2.70;86.80;;;;;;2060798;28;20033;-81
2020/12/06 02:03:56;;;;;;;8.80;5.63;;;2.70;86.80;;;;;;2056585;28;20057;-81
2020/12/06 02:04:56;;;;;;;9.18;6.07;;;2.60;86.70;;;;;;2048624;28;20038;-80
2020/12/06 02:05:57;;;;;;;9.70;5.93;;;2.60;86.80;;;;;;2056841;28;20462;-81
2020/12/06 02:06:59;;;;;;;9.20;6.05;;;2.60;86.80;;;;;;2049058;28;20063;-81
2020/12/06 02:08:01;;;;;;;8.27;5.43;;;2.60;86.80;;;;;;2047956;28;20511;-80
2020/12/06 02:09:02;;;;;;;9.75;5.95;;;2.60;86.80;;;;;;2056272;28;20046;-80
2020/12/06 02:10:04;;;;;;;9.90;6.03;;;2.60;86.90;;;;;;2047067;28;20028;-81
2020/12/06 02:11:05;;;;;;;8.80;5.53;;;2.60;86.90;;;;;;2055052;28;20034;-81
2020/12/06 02:12:09;;;;;;;9.25;5.90;;;2.60;86.90;;;;;;2055479;28;20117;-81
2020/12/06 02:13:09;;;;;;;9.60;5.90;;;2.60;86.90;;;;;;2046542;28;20028;-81
2020/12/06 02:14:11;;;;;;;8.60;5.35;;;2.60;86.90;;;;;;2048885;28;20035;-81
2020/12/06 02:15:12;;;;;;;8.45;5.30;;;2.70;87.00;;;;;;2054666;28;20031;-81
2020/12/06 02:16:14;;;;;;;9.05;5.70;;;2.60;86.90;;;;;;2051715;28;20472;-81
2020/12/06 02:17:15;;;;;;;8.73;5.30;;;2.70;87.00;;;;;;2063346;28;20038;-81
2020/12/06 02:18:16;;;;;;;10.35;5.70;;;2.60;86.90;;;;;;2064922;28;20586;-81
2020/12/06 02:19:16;;;;;;;8.23;5.47;;;2.60;86.90;;;;;;2056893;28;20035;-81
2020/12/06 02:20:18;;;;;;;9.18;5.57;;;2.60;87.00;;;;;;2055931;28;20069;-81
2020/12/06 02:21:19;;;;;;;8.60;5.25;;;2.60;87.00;;;;;;2056959;28;20489;-81
2020/12/06 02:22:20;;;;;;;8.43;5.53;;;2.60;86.90;;;;;;2057704;28;20023;-80
2020/12/06 02:23:21;;;;;;;8.45;5.38;;;2.70;87.00;;;;;;2059735;28;20026;-81
2020/12/06 02:24:21;;;;;;;9.05;5.88;;;2.70;87.00;;;;;;2052518;28;20039;-81
2020/12/06 02:25:22;;;;;;;9.18;5.75;;;2.60;86.90;;;;;;2047441;28;20476;-81
2020/12/06 02:26:23;;;;;;;8.30;5.63;;;2.70;87.00;;;;;;2055874;28;20466;-81
2020/12/06 02:27:23;;;;;;;9.18;5.90;;;2.70;87.10;;;;;;2061754;28;20043;-81
2020/12/06 02:28:24;;;;;;;8.75;5.72;;;2.70;87.10;;;;;;2052318;28;20031;-81
2020/12/06 02:29:25;;;;;;;8.13;5.43;;;2.70;87.10;;;;;;2060730;28;20026;-81
2020/12/06 02:30:25;;;;;;;9.50;5.60;;;2.60;87.00;;;;;;2058121;28;20517;-81
2020/12/06 02:31:26;;;;;;;8.18;5.47;;;2.70;87.60;;;;;;2051916;28;20030;-81
2020/12/06 02:32:26;;;;;;;8.55;5.57;;;2.70;87.00;;;;;;2052824;28;20468;-80
2020/12/06 02:33:27;;;;;;;7.70;5.20;;;2.70;87.60;;;;;;2056348;28;20126;-81
2020/12/06 02:34:28;;;;;;;7.78;5.25;;;2.70;87.00;;;;;;2048776;28;20031;-81
2020/12/06 02:35:28;;;;;;;8.77;5.78;;;2.70;87.00;;;;;;2040061;29;20059;-81
2020/12/06 02:36:29;;;;;;;8.05;5.45;;;2.70;86.90;;;;;;2054311;28;20117;-81
2020/12/06 02:37:31;;;;;;;8.35;5.55;;;2.70;87.00;;;;;;2053308;28;20474;-81
2020/12/06 02:38:31;;;;;;;8.20;5.40;;;2.70;87.00;;;;;;2055136;28;20062;-81
2020/12/06 02:39:32;;;;;;;8.13;5.45;;;2.70;87.00;;;;;;2063983;28;20042;-81
2020/12/06 02:40:33;;;;;;;7.38;4.80;;;2.70;87.00;;;;;;2060786;28;20501;-81
2020/12/06 02:41:41;;;;;;;7.97;5.45;;;2.70;87.10;;;;;;2055923;28;20035;-81
2020/12/06 02:42:42;;;;;;;8.07;5.28;;;2.70;87.10;;;;;;2060007;28;20041;-81
2020/12/06 02:43:43;;;;;;;8.60;5.68;;;2.70;87.10;;;;;;2059563;28;20038;-80
2020/12/06 02:44:43;;;;;;;8.10;5.30;;;2.70;87.10;;;;;;2055770;28;20030;-81
2020/12/06 02:45:44;;;;;;;9.55;5.70;;;2.70;87.10;;;;;;2064883;28;20034;-80
2020/12/06 02:46:45;;;;;;;7.47;5.05;;;2.70;87.10;;;;;;2073239;28;20046;-79
2020/12/06 02:47:45;;;;;;;8.02;5.22;;;2.70;87.20;;;;;;2066806;28;20038;-80
2020/12/06 02:48:46;;;;;;;8.23;5.25;;;2.70;87.20;;;;;;2058636;28;20051;-81
2020/12/06 02:49:46;;;;;;;8.05;5.32;;;2.70;87.20;;;;;;2062458;28;20035;-81
2020/12/06 02:50:47;;;;;;;8.70;5.32;;;2.70;87.20;;;;;;2064660;28;20107;-80
2020/12/06 02:51:48;;;;;;;7.72;5.05;;;2.70;87.20;;;;;;2049897;29;20023;-80
2020/12/06 02:52:50;;;;;;;8.27;5.28;;;2.70;87.20;;;;;;2052650;28;20039;-80
2020/12/06 02:53:51;;;;;;;8.13;5.43;;;2.80;87.20;;;;;;2060168;28;20429;-80
2020/12/06 02:54:52;;;;;;;7.50;4.70;;;2.80;87.20;;;;;;2057304;28;20041;-81
2020/12/06 02:55:52;;;;;;;7.35;4.82;;;2.80;87.20;;;;;;2064999;28;20061;-81
2020/12/06 02:56:53;;;;;;;7.95;5.25;;;2.80;87.20;;;;;;2063267;28;20031;-80
2020/12/06 02:57:54;;;;;;;8.48;5.25;;;2.80;87.20;;;;;;2065757;28;20035;-81
2020/12/06 02:58:54;;;;;;;7.75;5.10;;;2.80;87.20;;;;;;2072660;28;20050;-79
2020/12/06 02:59:55;;;;;;;7.53;4.80;;;2.80;87.20;;;;;;2066090;28;20042;-81
2020/12/06 03:00:55;;;;;;;8.70;5.85;;;2.80;87.20;;;;;;2049795;29;20019;-81
2020/12/06 03:01:56;;;;;;;7.85;5.28;;;2.80;87.20;;;;;;2046679;28;20039;-80
2020/12/06 03:02:57;;;;;;;7.88;4.80;;;2.80;87.20;;;;;;2055116;28;20505;-80
2020/12/06 03:03:58;;;;;;;7.85;4.95;;;2.80;87.20;;;;;;2040933;29;20036;-81
2020/12/06 03:04:59;;;;;;;7.80;5.03;;;2.70;87.20;;;;;;2042504;28;20044;-80
2020/12/06 03:05:59;;;;;;;7.45;5.30;;;2.80;87.40;;;;;;2059190;28;20121;-80
2020/12/06 03:07:00;;;;;;;8.20;5.32;;;2.70;87.30;;;;;;2061192;28;20388;-80
2020/12/06 03:08:01;;;;;;;8.85;5.57;;;2.70;87.30;;;;;;2052869;28;20504;-80
2020/12/06 03:09:01;;;;;;;8.57;5.40;;;2.70;87.40;;;;;;2055080;28;20040;-81
2020/12/06 03:10:06;;;;;;;8.48;5.30;;;2.70;87.40;;;;;;2071257;28;20421;-80
2020/12/06 03:11:08;;;;;;;9.27;5.32;;;2.70;87.50;;;;;;2061681;28;20133;-80
2020/12/06 03:12:09;;;;;;;8.57;5.30;;;2.70;87.40;;;;;;2055594;28;20508;-80
2020/12/06 03:13:09;;;;;;;8.23;5.50;;;2.70;87.40;;;;;;2047577;28;20130;-80
2020/12/06 03:14:10;;;;;;;9.00;5.50;;;2.70;87.40;;;;;;2053969;28;20027;-81
2020/12/06 03:15:10;;;;;;;7.90;5.22;;;2.70;87.40;;;;;;2056626;28;20073;-81
2020/12/06 03:16:11;;;;;;;10.00;5.55;;;2.70;87.40;;;;;;2059837;28;20744;-81
2020/12/06 03:17:12;;;;;;;8.25;5.53;;;2.70;87.40;;;;;;2066903;28;20033;-80
2020/12/06 03:18:12;;;;;;;8.18;5.10;;;2.70;87.40;;;;;;2073310;28;20042;-80
2020/12/06 03:19:13;;;;;;;7.78;5.30;;;2.70;87.40;;;;;;2065313;28;20026;-82
2020/12/06 03:20:14;;;;;;;9.88;5.53;;;2.70;87.40;;;;;;2077700;28;20073;-79
2020/12/06 03:21:14;;;;;;;8.40;5.30;;;2.70;87.40;;;;;;2072636;28;20062;-80
2020/12/06 03:22:15;;;;;;;8.20;5.70;;;2.70;87.30;;;;;;2081541;28;20077;-80
2020/12/06 03:23:15;;;;;;;7.28;4.60;;;2.80;87.40;;;;;;2066048;28;20057;-81
2020/12/06 03:24:16;;;;;;;8.20;5.13;;;2.80;87.40;;;;;;2055097;28;20370;-81
2020/12/06 03:25:17;;;;;;;7.97;4.97;;;2.70;87.40;;;;;;2058194;28;20062;-81
2020/12/06 03:26:17;;;;;;;7.47;4.95;;;2.70;87.40;;;;;;2055700;28;20023;-80
2020/12/06 03:27:18;;;;;;;7.22;4.57;;;2.70;87.50;;;;;;2050716;28;20097;-81
2020/12/06 03:28:19;;;;;;;7.68;5.00;;;2.70;87.50;;;;;;2060952;28;20512;-81
2020/12/06 03:29:19;;;;;;;7.80;4.97;;;2.80;87.50;;;;;;2061624;28;20463;-81
2020/12/06 03:30:20;;;;;;;8.00;5.10;;;2.70;87.50;;;;;;2055943;28;20039;-81
2020/12/06 03:31:21;;;;;;;7.47;5.03;;;2.70;87.50;;;;;;2054710;28;20031;-81
2020/12/06 03:32:22;;;;;;;7.22;4.75;;;2.80;87.50;;;;;;2046140;28;20037;-81
2020/12/06 03:33:23;;;;;;;8.25;5.30;;;2.70;87.50;;;;;;2047656;28;20102;-81
2020/12/06 03:34:23;;;;;;;7.40;4.75;;;2.70;87.60;;;;;;2061679;28;20101;-81
2020/12/06 03:35:24;;;;;;;7.93;5.25;;;2.70;87.60;;;;;;2059079;28;20500;-81
2020/12/06 03:36:25;;;;;;;6.75;4.60;;;2.70;87.60;;;;;;2042002;28;20553;-80
2020/12/06 03:37:25;;;;;;;7.57;5.22;;;2.70;87.60;;;;;;2039848;29;20451;-80
2020/12/06 03:38:26;;;;;;;7.15;5.00;;;2.70;87.60;;;;;;2046072;28;20035;-81
2020/12/06 03:39:27;;;;;;;8.20;5.30;;;2.80;87.60;;;;;;2064751;28;20117;-80
2020/12/06 03:40:27;;;;;;;7.65;5.05;;;2.70;87.60;;;;;;2071223;28;20034;-81
2020/12/06 03:41:28;;;;;;;8.18;5.25;;;2.70;87.60;;;;;;2069835;28;20556;-80
2020/12/06 03:42:28;;;;;;;7.90;5.40;;;2.70;87.60;;;;;;2058913;28;20041;-81
2020/12/06 03:43:29;;;;;;;8.02;5.28;;;2.70;87.60;;;;;;2062771;28;20382;-81
2020/12/06 03:44:30;;;;;;;7.45;5.25;;;2.70;87.60;;;;;;2061921;28;20034;-80
2020/12/06 03:45:30;;;;;;;7.93;5.10;;;2.80;87.70;;;;;;2052622;28;20049;-80
2020/12/06 03:46:31;;;;;;;8.95;5.15;;;2.80;87.70;;;;;;2045710;28;20510;-81
2020/12/06 03:47:32;;;;;;;7.72;5.05;;;2.80;87.70;;;;;;2056382;28;20035;-81
2020/12/06 03:48:32;;;;;;;7.28;4.60;;;2.80;87.60;;;;;;2050765;28;20031;-81
2020/12/06 03:49:33;;;;;;;8.27;5.05;;;2.80;87.60;;;;;;2056292;28;20035;-81
2020/12/06 03:50:33;;;;;;;6.75;4.50;;;2.80;87.60;;;;;;2062314;28;20038;-80
2020/12/06 03:51:34;;;;;;;7.22;4.85;;;2.70;87.50;;;;;;2053162;28;20808;-81
2020/12/06 03:52:35;;;;;;;8.45;5.20;;;2.80;87.60;;;;;;2050515;28;20028;-81
2020/12/06 03:53:35;;;;;;;8.45;5.47;;;2.80;87.80;;;;;;2052719;28;20613;-81
2020/12/06 03:54:36;;;;;;;8.18;5.60;;;2.80;87.50;;;;;;2061708;28;20149;-81
2020/12/06 03:55:37;;;;;;;7.93;5.30;;;2.80;87.60;;;;;;2057312;28;20121;-81
2020/12/06 03:56:37;;;;;;;7.53;4.95;;;2.80;87.60;;;;;;2052306;28;20039;-81
2020/12/06 03:57:38;;;;;;;8.05;5.30;;;2.80;87.60;;;;;;2047452;28;20062;-81
2020/12/06 03:58:38;;;;;;;7.65;4.78;;;2.70;87.60;;;;;;2050420;28;20069;-81
2020/12/06 03:59:39;;;;;;;7.82;5.20;;;2.70;87.60;;;;;;2053532;28;20050;-81
2020/12/06 04:00:40;;;;;;;8.10;5.18;;;2.70;87.70;;;;;;2041366;28;20131;-81
2020/12/06 04:01:40;;;;;;;7.63;4.80;;;2.70;87.70;;;;;;2040307;29;20050;-80
2020/12/06 04:02:41;;;;;;;6.82;4.97;;;2.70;87.80;;;;;;2042194;29;20032;-80
2020/12/06 04:03:42;;;;;;;8.60;5.38;;;2.70;87.80;;;;;;2054406;28;20047;-80
2020/12/06 04:04:42;;;;;;;8.57;5.13;;;2.70;87.80;;;;;;2062607;28;20447;-81
2020/12/06 04:05:43;;;;;;;7.47;5.07;;;2.70;87.80;;;;;;2055573;28;20034;-81
2020/12/06 04:06:43;;;;;;;7.47;4.70;;;2.70;87.80;;;;;;2055399;28;20178;-81
2020/12/06 04:07:44;;;;;;;7.40;4.80;;;2.70;88.10;;;;;;2055951;28;20027;-81
2020/12/06 04:08:44;;;;;;;7.05;4.70;;;2.70;87.90;;;;;;2055452;28;20575;-81
2020/12/06 04:09:45;;;;;;;7.47;4.95;;;2.70;87.80;;;;;;2056329;28;20034;-81
2020/12/06 04:10:46;;;;;;;6.68;4.50;;;2.80;87.80;;;;;;2053678;28;20401;-81
2020/12/06 04:11:46;;;;;;;8.15;5.03;;;2.80;87.80;;;;;;2052234;28;20126;-81
2020/12/06 04:12:47;;;;;;;7.60;5.07;;;2.80;87.80;;;;;;2053574;28;20039;-81
2020/12/06 04:13:48;;;;;;;8.40;5.10;;;2.80;87.80;;;;;;2056015;28;20050;-81
2020/12/06 04:14:48;;;;;;;8.02;5.40;;;2.80;87.80;;;;;;2040168;29;20095;-81
2020/12/06 04:15:49;;;;;;;8.20;4.88;;;2.80;87.80;;;;;;2039799;29;20167;-80
2020/12/06 04:16:49;;;;;;;7.70;4.82;;;2.80;87.80;;;;;;2045498;29;20031;-81
2020/12/06 04:17:50;;;;;;;8.27;4.88;;;2.80;87.80;;;;;;2048016;28;20031;-81
2020/12/06 04:18:51;;;;;;;9.02;5.30;;;2.80;87.80;;;;;;2045913;28;20035;-81
2020/12/06 04:19:51;;;;;;;9.07;5.72;;;2.80;87.80;;;;;;2046935;28;20126;-80
2020/12/06 04:20:52;;;;;;;7.63;5.10;;;2.80;87.80;;;;;;2062214;28;20066;-81
2020/12/06 04:21:52;;;;;;;9.77;6.22;;;2.80;87.80;;;;;;2061344;28;20059;-81
2020/12/06 04:22:53;;;;;;;8.48;5.63;;;2.80;87.80;;;;;;2061103;28;20081;-81
2020/12/06 04:23:54;;;;;;;8.85;5.90;;;2.90;87.70;;;;;;2062912;28;20042;-81
2020/12/06 04:24:54;;;;;;;9.68;6.25;;;2.90;87.60;;;;;;2055636;28;20054;-81
2020/12/06 04:25:55;;;;;;;9.63;5.93;;;2.90;87.50;;;;;;2051059;28;20031;-81
2020/12/06 04:26:56;;;;;;;8.93;5.97;;;2.90;87.40;;;;;;2055954;28;20441;-80
2020/12/06 04:27:56;;;;;;;8.88;5.78;;;3.00;87.40;;;;;;2047530;28;20057;-81
2020/12/06 04:28:57;;;;;;;8.35;5.22;;;3.00;87.30;;;;;;2047830;28;20059;-80
2020/12/06 04:29:58;;;;;;;8.32;5.38;;;3.00;87.20;;;;;;2054971;28;20085;-80
2020/12/06 04:30:59;;;;;;;8.85;5.88;;;3.00;87.20;;;;;;2063314;28;20026;-80
2020/12/06 04:31:59;;;;;;;9.80;5.60;;;3.00;87.10;;;;;;2059072;28;20034;-80
2020/12/06 04:33:00;;;;;;;8.32;5.55;;;3.00;87.10;;;;;;2061661;28;20196;-80
2020/12/06 04:34:00;;;;;;;9.13;5.70;;;3.10;87.20;;;;;;2063447;28;20037;-80
2020/12/06 04:35:02;;;;;;;9.15;6.25;;;3.10;87.10;;;;;;2063218;28;20065;-80
2020/12/06 04:36:03;;;;;;;10.43;6.22;;;3.10;87.10;;;;;;2063269;28;20100;-81
2020/12/06 04:37:05;;;;;;;8.57;5.65;;;3.10;87.00;;;;;;2055679;28;20039;-81
2020/12/06 04:38:06;;;;;;;8.98;5.60;;;3.10;87.00;;;;;;2055105;28;20436;-81
2020/12/06 04:39:06;;;;;;;9.85;6.15;;;3.10;86.90;;;;;;2058444;28;20039;-81
2020/12/06 04:40:07;;;;;;;9.35;5.85;;;3.10;86.90;;;;;;2054985;28;20031;-81
2020/12/06 04:41:08;;;;;;;8.48;5.45;;;3.10;86.90;;;;;;2059804;28;20031;-81
2020/12/06 04:42:08;;;;;;;9.05;5.53;;;3.20;86.90;;;;;;2056274;28;20377;-81
2020/12/06 04:43:09;;;;;;;7.82;5.15;;;3.10;86.80;;;;;;2060147;28;20051;-82
2020/12/06 04:44:10;;;;;;;8.05;5.53;;;3.10;86.80;;;;;;2059304;28;20433;-81
2020/12/06 04:45:12;;;;;;;7.78;5.10;;;3.10;86.80;;;;;;2063370;28;20030;-81
2020/12/06 04:46:13;;;;;;;9.45;5.88;;;3.10;86.80;;;;;;2063970;28;20046;-81
2020/12/06 04:47:25;;;;;;;7.50;5.40;;;3.10;86.80;;;;;;2059303;28;20027;-81
2020/12/06 04:49:03;;;;;;;8.07;5.25;;;3.10;86.80;;;;;;2055757;28;20027;-81
2020/12/06 04:50:04;;;;;;;7.15;4.53;;;3.10;86.90;;;;;;2054103;28;20039;-79
2020/12/06 04:51:06;;;;;;;8.10;4.75;;;3.10;86.80;;;;;;2063531;28;20025;-80
2020/12/06 04:52:13;;;;;;;7.63;5.20;;;3.10;86.90;;;;;;2053440;28;20406;-80
2020/12/06 04:53:18;;;;;;;6.95;4.97;;;3.10;87.00;;;;;;2057504;28;20018;-81
2020/12/06 04:54:21;;;;;;;7.80;5.00;;;3.00;87.00;;;;;;2064059;28;20029;-80
2020/12/06 04:55:25;;;;;;;7.18;5.00;;;3.00;87.20;;;;;;2061573;28;20022;-80
2020/12/06 04:56:28;;;;;;;6.55;4.32;;;3.00;87.30;;;;;;2063850;28;20536;-80
2020/12/06 04:57:30;;;;;;;8.35;4.82;;;3.00;87.40;;;;;;2061711;28;20113;-80
2020/12/06 04:58:31;;;;;;;7.93;5.28;;;2.90;87.30;;;;;;2069897;28;20036;-80
2020/12/06 04:59:37;;;;;;;8.32;5.10;;;2.90;87.40;;;;;;2063902;28;20465;-80
2020/12/06 05:00:38;;;;;;;8.13;5.03;;;2.90;87.40;;;;;;2060736;28;20361;-80
2020/12/06 05:01:39;;;;;;;7.65;4.82;;;2.90;87.40;;;;;;2055686;28;20027;-81
2020/12/06 05:02:46;;;;;;;7.88;5.10;;;2.90;87.40;;;;;;2049384;28;20031;-80
2020/12/06 05:03:54;;;;;;;8.02;5.18;;;2.90;87.50;;;;;;2057976;28;20378;-80
2020/12/06 05:05:00;;;;;;;7.65;4.80;;;2.90;87.50;;;;;;2063553;28;20030;-79
2020/12/06 05:06:03;;;;;;;7.20;4.90;;;2.90;87.50;;;;;;2063511;28;20026;-80
2020/12/06 05:07:04;;;;;;;7.95;5.30;;;2.90;87.50;;;;;;2055965;28;20041;-80
2020/12/06 05:08:09;;;;;;;7.45;4.97;;;2.90;87.50;;;;;;2061749;28;20060;-80
2020/12/06 05:09:12;;;;;;;8.18;5.07;;;2.90;87.50;;;;;;2069859;28;20034;-80
2020/12/06 05:10:13;;;;;;;7.32;4.72;;;2.80;87.40;;;;;;2063147;28;20023;-80
2020/12/06 05:11:16;;;;;;;7.93;5.10;;;2.80;87.40;;;;;;2054955;28;20445;-80
2020/12/06 05:12:17;;;;;;;6.90;4.70;;;2.80;87.50;;;;;;2058235;28;20094;-80
2020/12/06 05:13:18;;;;;;;7.95;5.10;;;2.80;87.50;;;;;;2071794;28;20057;-81
2020/12/06 05:14:18;;;;;;;7.80;5.20;;;2.80;87.50;;;;;;2063995;28;20022;-80
2020/12/06 05:15:19;;;;;;;6.70;4.70;;;2.80;87.50;;;;;;2059522;28;20078;-80
2020/12/06 05:16:21;;;;;;;7.20;4.97;;;2.80;87.50;;;;;;2056065;28;20027;-80
2020/12/06 05:17:21;;;;;;;8.65;5.43;;;2.80;88.10;;;;;;2061378;28;20658;-80
2020/12/06 05:18:23;;;;;;;7.55;5.10;;;2.80;87.50;;;;;;2055756;28;20077;-80
2020/12/06 05:19:25;;;;;;;8.32;5.45;;;2.80;87.50;;;;;;2055556;28;20161;-80
2020/12/06 05:20:27;;;;;;;8.35;5.40;;;2.80;87.50;;;;;;2063213;28;20109;-80
2020/12/06 05:21:40;;;;;;;8.32;5.20;;;2.80;87.50;;;;;;2070604;28;20381;-81
2020/12/06 05:22:47;;;;;;;8.68;5.20;;;2.80;87.50;;;;;;2060795;28;20517;-80